createdAt,value
2018-03-21T00:00:52.423Z,0.00
2018-03-21T00:01:52.376Z,0.00
2018-03-21T00:03:46.729Z,0.00
2018-03-21T00:04:46.684Z,0.00
2018-03-21T00:06:41.052Z,0.00
2018-03-21T00:07:40.996Z,0.00
2018-03-21T00:09:35.376Z,0.00
2018-03-21T00:10:35.317Z,0.00
2018-03-21T00:12:30.609Z,0.00
2018-03-21T00:13:30.505Z,0.00
2018-03-21T00:15:24.860Z,0.00
2018-03-21T00:16:24.813Z,0.00
2018-03-21T00:18:19.976Z,0.00
2018-03-21T00:19:19.927Z,0.00
2018-03-21T00:21:14.288Z,0.00
2018-03-21T00:22:14.238Z,0.00
2018-03-21T00:24:07.703Z,0.00
2018-03-21T00:25:07.654Z,0.00
2018-03-21T00:27:02.015Z,0.00
2018-03-21T00:28:02.011Z,0.00
2018-03-21T00:29:56.377Z,0.00
2018-03-21T00:30:56.318Z,0.00
2018-03-21T00:32:53.173Z,0.00
2018-03-21T00:33:53.123Z,0.00
2018-03-21T00:35:47.480Z,0.00
2018-03-21T00:36:47.431Z,0.00
2018-03-21T00:38:41.791Z,0.00
2018-03-21T00:39:41.739Z,0.00
2018-03-21T00:41:36.147Z,0.00
2018-03-21T00:42:36.051Z,0.00
2018-03-21T00:44:30.414Z,0.00
2018-03-21T00:45:30.373Z,0.00
2018-03-21T00:47:24.724Z,0.00
2018-03-21T00:48:24.677Z,0.00
2018-03-21T00:50:19.037Z,0.00
2018-03-21T00:51:18.985Z,0.00
2018-03-21T00:53:13.347Z,0.00
2018-03-21T00:54:13.301Z,0.00
2018-03-21T00:56:07.668Z,0.00
2018-03-21T00:57:07.612Z,0.00
2018-03-21T00:59:04.467Z,0.00
2018-03-21T01:00:04.416Z,0.00
2018-03-21T01:01:58.787Z,0.00
2018-03-21T01:02:58.730Z,0.00
2018-03-21T01:04:53.960Z,0.00
2018-03-21T01:05:53.906Z,0.00
2018-03-21T01:07:50.772Z,0.00
2018-03-21T01:08:50.719Z,0.00
2018-03-21T01:10:45.096Z,0.00
2018-03-21T01:11:45.036Z,0.00
2018-03-21T01:13:39.384Z,0.00
2018-03-21T01:14:39.335Z,0.00
2018-03-21T01:16:33.690Z,0.00
2018-03-21T01:17:33.645Z,0.00
2018-03-21T01:19:28.011Z,0.00
2018-03-21T01:20:27.963Z,0.00
2018-03-21T01:22:22.335Z,0.00
2018-03-21T01:23:22.279Z,0.00
2018-03-21T01:25:16.669Z,0.00
2018-03-21T01:26:16.580Z,0.00
2018-03-21T01:28:10.955Z,0.00
2018-03-21T01:29:10.904Z,0.00
2018-03-21T01:31:05.253Z,0.00
2018-03-21T01:32:05.226Z,0.00
2018-03-21T01:33:59.567Z,0.00
2018-03-21T01:34:59.514Z,0.00
2018-03-21T01:36:53.882Z,0.00
2018-03-21T01:37:53.827Z,0.00
2018-03-21T01:39:48.221Z,0.00
2018-03-21T01:40:48.136Z,0.00
2018-03-21T01:42:42.491Z,0.00
2018-03-21T01:43:42.451Z,0.00
2018-03-21T01:45:35.818Z,0.00
2018-03-21T01:46:35.771Z,0.00
2018-03-21T01:48:30.131Z,0.00
2018-03-21T01:49:30.080Z,0.00
2018-03-21T01:51:24.428Z,0.00
2018-03-21T01:52:24.385Z,0.00
2018-03-21T01:54:18.787Z,0.00
2018-03-21T01:55:18.737Z,0.00
2018-03-21T01:57:13.126Z,0.00
2018-03-21T01:58:13.077Z,0.00
2018-03-21T02:00:09.974Z,0.00
2018-03-21T02:01:09.918Z,0.00
2018-03-21T02:03:04.294Z,0.00
2018-03-21T02:04:04.264Z,0.00
2018-03-21T02:05:58.570Z,0.00
2018-03-21T02:06:58.526Z,0.00
2018-03-21T02:08:52.887Z,0.00
2018-03-21T02:09:52.838Z,0.00
2018-03-21T02:11:47.191Z,0.00
2018-03-21T02:12:47.144Z,0.00
2018-03-21T02:14:41.500Z,0.00
2018-03-21T02:15:41.452Z,0.00
2018-03-21T02:17:35.812Z,0.00
2018-03-21T02:18:35.761Z,0.00
2018-03-21T02:20:30.122Z,0.00
2018-03-21T02:21:30.070Z,0.00
2018-03-21T02:23:24.423Z,0.00
2018-03-21T02:24:24.383Z,0.00
2018-03-21T02:26:18.950Z,0.00
2018-03-21T02:27:18.887Z,0.00
2018-03-21T02:29:13.244Z,0.00
2018-03-21T02:30:13.198Z,0.00
2018-03-21T02:32:07.563Z,0.00
2018-03-21T02:33:07.506Z,0.00
2018-03-21T02:35:01.863Z,0.00
2018-03-21T02:36:01.816Z,0.00
2018-03-21T02:37:56.163Z,0.00
2018-03-21T02:38:56.118Z,0.00
2018-03-21T02:40:50.473Z,0.00
2018-03-21T02:41:50.426Z,0.00
2018-03-21T02:43:44.779Z,0.00
2018-03-21T02:44:44.735Z,0.00
2018-03-21T02:46:39.097Z,0.00
2018-03-21T02:47:39.054Z,0.00
2018-03-21T02:49:33.425Z,0.00
2018-03-21T02:50:33.360Z,0.00
2018-03-21T02:52:27.711Z,0.00
2018-03-21T02:53:27.660Z,0.00
2018-03-21T02:55:22.028Z,0.00
2018-03-21T02:56:21.965Z,0.00
2018-03-21T02:58:16.323Z,0.00
2018-03-21T02:59:16.272Z,0.00
2018-03-21T03:01:10.632Z,0.00
2018-03-21T03:02:10.587Z,0.00
2018-03-21T03:04:04.952Z,0.00
2018-03-21T03:05:04.890Z,0.00
2018-03-21T03:06:59.261Z,0.00
2018-03-21T03:07:59.215Z,0.00
2018-03-21T03:09:53.580Z,0.00
2018-03-21T03:10:53.525Z,0.00
2018-03-21T03:12:47.895Z,0.00
2018-03-21T03:13:47.831Z,0.00
2018-03-21T03:15:42.186Z,0.00
2018-03-21T03:16:42.142Z,0.00
2018-03-21T03:18:36.507Z,0.00
2018-03-21T03:19:36.448Z,0.00
2018-03-21T03:21:30.819Z,0.00
2018-03-21T03:22:30.776Z,0.00
2018-03-21T03:24:27.627Z,0.00
2018-03-21T03:25:27.578Z,0.00
2018-03-21T03:27:21.936Z,0.00
2018-03-21T03:28:21.886Z,0.00
2018-03-21T03:30:16.234Z,0.00
2018-03-21T03:31:16.186Z,0.00
2018-03-21T03:33:11.412Z,0.00
2018-03-21T03:34:11.319Z,0.00
2018-03-21T03:36:05.667Z,0.00
2018-03-21T03:37:05.624Z,0.00
2018-03-21T03:38:59.980Z,0.00
2018-03-21T03:39:59.929Z,0.00
2018-03-21T03:41:54.292Z,0.00
2018-03-21T03:42:54.242Z,0.00
2018-03-21T03:44:48.604Z,0.00
2018-03-21T03:45:48.575Z,0.00
2018-03-21T03:47:42.899Z,0.00
2018-03-21T03:48:42.855Z,0.00
2018-03-21T03:50:37.212Z,0.00
2018-03-21T03:51:37.162Z,0.00
2018-03-21T03:53:31.527Z,0.00
2018-03-21T03:54:31.482Z,0.00
2018-03-21T03:56:25.836Z,0.00
2018-03-21T03:57:25.792Z,0.00
2018-03-21T03:59:21.052Z,0.00
2018-03-21T04:00:21.002Z,0.00
2018-03-21T04:02:16.260Z,0.00
2018-03-21T04:03:16.209Z,0.00
2018-03-21T04:05:11.456Z,0.00
2018-03-21T04:06:11.413Z,0.00
2018-03-21T04:08:05.770Z,0.00
2018-03-21T04:09:05.719Z,0.00
2018-03-21T04:11:00.088Z,0.00
2018-03-21T04:12:00.033Z,0.00
2018-03-21T04:13:54.388Z,0.00
2018-03-21T04:14:54.337Z,0.00
2018-03-21T04:16:48.734Z,0.00
2018-03-21T04:17:48.682Z,0.00
2018-03-21T04:19:42.999Z,0.00
2018-03-21T04:20:42.956Z,0.00
2018-03-21T04:22:37.310Z,0.00
2018-03-21T04:23:37.266Z,0.00
2018-03-21T04:25:31.619Z,0.00
2018-03-21T04:26:31.572Z,0.00
2018-03-21T04:28:26.927Z,0.00
2018-03-21T04:29:26.885Z,0.00
2018-03-21T04:31:21.234Z,0.00
2018-03-21T04:32:21.183Z,0.00
2018-03-21T04:34:15.540Z,0.00
2018-03-21T04:35:15.523Z,0.00
2018-03-21T04:37:12.350Z,0.00
2018-03-21T04:38:12.297Z,0.00
2018-03-21T04:40:06.674Z,0.00
2018-03-21T04:41:06.624Z,0.00
2018-03-21T04:43:03.470Z,0.00
2018-03-21T04:44:03.422Z,0.00
2018-03-21T04:46:00.269Z,0.00
2018-03-21T04:47:00.222Z,0.00
2018-03-21T04:48:54.585Z,0.00
2018-03-21T04:49:54.530Z,0.00
2018-03-21T04:51:49.710Z,0.00
2018-03-21T04:52:49.666Z,0.00
2018-03-21T04:54:44.021Z,0.00
2018-03-21T04:55:43.971Z,0.00
2018-03-21T04:57:38.322Z,0.00
2018-03-21T04:58:38.282Z,0.00
2018-03-21T05:00:35.961Z,0.00
2018-03-21T05:01:35.900Z,0.00
2018-03-21T05:03:30.248Z,0.00
2018-03-21T05:04:30.201Z,0.00
2018-03-21T05:06:27.075Z,0.00
2018-03-21T05:07:27.012Z,0.00
2018-03-21T05:09:23.897Z,0.00
2018-03-21T05:10:23.833Z,0.00
2018-03-21T05:12:18.190Z,0.00
2018-03-21T05:13:18.119Z,0.00
2018-03-21T05:15:14.966Z,0.00
2018-03-21T05:16:14.920Z,0.00
2018-03-21T05:18:11.775Z,0.00
2018-03-21T05:19:11.730Z,0.00
2018-03-21T05:21:08.603Z,0.00
2018-03-21T05:22:08.550Z,0.00
2018-03-21T05:24:02.907Z,0.00
2018-03-21T05:25:02.882Z,0.00
2018-03-21T05:26:57.207Z,0.00
2018-03-21T05:27:57.154Z,0.00
2018-03-21T05:29:51.554Z,0.00
2018-03-21T05:30:51.462Z,0.00
2018-03-21T05:32:45.821Z,0.00
2018-03-21T05:33:45.771Z,0.00
2018-03-21T05:35:40.182Z,0.00
2018-03-21T05:36:40.077Z,0.00
2018-03-21T05:38:34.432Z,0.00
2018-03-21T05:39:34.393Z,5.63
2018-03-21T05:41:29.552Z,5.63
2018-03-21T05:42:29.502Z,5.63
2018-03-21T05:44:23.863Z,5.63
2018-03-21T05:45:23.811Z,5.63
2018-03-21T05:47:18.975Z,5.63
2018-03-21T05:48:18.949Z,5.63
2018-03-21T05:50:13.344Z,5.63
2018-03-21T05:51:13.280Z,5.63
2018-03-21T05:53:09.134Z,5.63
2018-03-21T05:54:09.091Z,5.63
2018-03-21T05:56:05.978Z,5.63
2018-03-21T05:57:05.885Z,5.63
2018-03-21T05:58:05.854Z,11.25
2018-03-21T05:59:05.826Z,11.25
2018-03-21T06:00:05.798Z,11.25
2018-03-21T06:01:05.765Z,11.25
2018-03-21T06:02:05.739Z,11.25
2018-03-21T06:03:05.705Z,11.25
2018-03-21T06:04:05.676Z,11.25
2018-03-21T06:05:05.645Z,11.25
2018-03-21T06:06:05.620Z,11.25
2018-03-21T06:07:05.593Z,11.25
2018-03-21T06:08:05.555Z,11.25
2018-03-21T06:09:05.527Z,11.25
2018-03-21T06:10:05.498Z,16.88
2018-03-21T06:11:05.475Z,11.25
2018-03-21T06:12:05.439Z,11.25
2018-03-21T06:13:05.407Z,11.25
2018-03-21T06:14:05.378Z,16.88
2018-03-21T06:15:05.349Z,16.88
2018-03-21T06:16:05.318Z,16.88
2018-03-21T06:17:05.291Z,16.88
2018-03-21T06:18:05.262Z,16.88
2018-03-21T06:19:05.227Z,16.88
2018-03-21T06:20:05.208Z,16.88
2018-03-21T06:21:05.173Z,16.88
2018-03-21T06:22:05.149Z,22.50
2018-03-21T06:23:05.115Z,22.50
2018-03-21T06:24:05.122Z,16.88
2018-03-21T06:25:05.091Z,22.50
2018-03-21T06:26:05.070Z,22.50
2018-03-21T06:27:04.991Z,22.50
2018-03-21T06:28:04.960Z,22.50
2018-03-21T06:29:04.931Z,22.50
2018-03-21T06:30:04.904Z,22.50
2018-03-21T06:31:04.923Z,22.50
2018-03-21T06:32:04.843Z,28.13
2018-03-21T06:33:04.817Z,28.13
2018-03-21T06:34:04.797Z,28.13
2018-03-21T06:35:04.753Z,28.13
2018-03-21T06:36:04.724Z,33.75
2018-03-21T06:37:04.695Z,33.75
2018-03-21T06:38:04.701Z,28.13
2018-03-21T06:39:04.636Z,28.13
2018-03-21T06:40:04.620Z,33.75
2018-03-21T06:41:04.574Z,33.75
2018-03-21T06:42:04.547Z,33.75
2018-03-21T06:43:04.519Z,33.75
2018-03-21T06:44:04.488Z,33.75
2018-03-21T06:45:04.457Z,39.38
2018-03-21T06:46:04.426Z,39.38
2018-03-21T06:47:04.397Z,39.38
2018-03-21T06:48:04.371Z,39.38
2018-03-21T06:49:04.359Z,39.38
2018-03-21T06:50:04.359Z,39.38
2018-03-21T06:51:04.277Z,39.38
2018-03-21T06:52:04.248Z,45.00
2018-03-21T06:53:04.218Z,45.00
2018-03-21T06:54:04.191Z,50.63
2018-03-21T06:55:04.158Z,50.63
2018-03-21T06:56:39.989Z,50.63
2018-03-21T06:57:04.103Z,50.63
2018-03-21T06:58:04.074Z,50.63
2018-03-21T06:59:04.043Z,50.63
2018-03-21T07:00:04.016Z,50.63
2018-03-21T07:01:03.985Z,50.63
2018-03-21T07:02:03.954Z,50.63
2018-03-21T07:03:03.924Z,56.25
2018-03-21T07:04:03.908Z,50.63
2018-03-21T07:05:03.865Z,50.63
2018-03-21T07:06:03.838Z,61.88
2018-03-21T07:07:03.820Z,56.25
2018-03-21T07:08:03.788Z,61.88
2018-03-21T07:09:03.744Z,67.50
2018-03-21T07:10:03.724Z,67.50
2018-03-21T07:11:03.698Z,73.13
2018-03-21T07:12:03.672Z,67.50
2018-03-21T07:13:03.641Z,67.50
2018-03-21T07:14:03.606Z,67.50
2018-03-21T07:15:03.573Z,67.50
2018-03-21T07:16:03.550Z,67.50
2018-03-21T07:17:03.516Z,67.50
2018-03-21T07:18:03.482Z,84.38
2018-03-21T07:19:03.455Z,95.63
2018-03-21T07:20:03.426Z,56.25
2018-03-21T07:21:03.400Z,78.75
2018-03-21T07:22:03.370Z,106.88
2018-03-21T07:23:03.336Z,84.38
2018-03-21T07:24:03.307Z,123.75
2018-03-21T07:25:03.283Z,106.88
2018-03-21T07:26:03.252Z,106.88
2018-03-21T07:27:24.246Z,106.88
2018-03-21T07:28:03.194Z,146.25
2018-03-21T07:29:03.162Z,174.38
2018-03-21T07:30:03.135Z,191.25
2018-03-21T07:31:03.107Z,213.75
2018-03-21T07:32:03.079Z,225.00
2018-03-21T07:33:03.047Z,219.38
2018-03-21T07:34:03.018Z,225.00
2018-03-21T07:35:02.989Z,225.00
2018-03-21T07:36:02.963Z,230.63
2018-03-21T07:37:02.935Z,236.25
2018-03-21T07:38:02.906Z,236.25
2018-03-21T07:39:02.920Z,241.88
2018-03-21T07:40:02.849Z,247.50
2018-03-21T07:41:02.829Z,247.50
2018-03-21T07:42:02.796Z,253.13
2018-03-21T07:43:02.765Z,253.13
2018-03-21T07:44:02.741Z,258.75
2018-03-21T07:45:02.801Z,264.38
2018-03-21T07:46:02.702Z,270.00
2018-03-21T07:47:02.659Z,275.63
2018-03-21T07:48:02.627Z,275.63
2018-03-21T07:49:02.600Z,281.25
2018-03-21T07:50:02.576Z,286.88
2018-03-21T07:51:02.544Z,286.88
2018-03-21T07:52:02.522Z,292.50
2018-03-21T07:53:02.496Z,292.50
2018-03-21T07:54:02.469Z,298.13
2018-03-21T07:55:02.441Z,303.75
2018-03-21T07:56:02.414Z,303.75
2018-03-21T07:57:02.380Z,315.00
2018-03-21T07:58:02.360Z,315.00
2018-03-21T07:59:02.328Z,320.63
2018-03-21T08:00:02.358Z,320.63
2018-03-21T08:01:02.276Z,320.63
2018-03-21T08:02:02.281Z,326.25
2018-03-21T08:03:02.225Z,326.25
2018-03-21T08:04:02.198Z,331.88
2018-03-21T08:05:02.177Z,343.13
2018-03-21T08:06:02.146Z,337.50
2018-03-21T08:07:02.121Z,343.13
2018-03-21T08:08:02.098Z,348.75
2018-03-21T08:09:02.070Z,348.75
2018-03-21T08:10:02.044Z,354.38
2018-03-21T08:11:02.017Z,354.38
2018-03-21T08:12:01.994Z,354.38
2018-03-21T08:13:01.967Z,354.38
2018-03-21T08:14:01.938Z,360.00
2018-03-21T08:15:01.913Z,360.00
2018-03-21T08:16:01.891Z,365.63
2018-03-21T08:17:01.865Z,365.63
2018-03-21T08:18:01.842Z,371.25
2018-03-21T08:19:01.813Z,371.25
2018-03-21T08:20:01.786Z,376.88
2018-03-21T08:21:01.768Z,382.50
2018-03-21T08:22:01.741Z,388.13
2018-03-21T08:23:01.711Z,393.75
2018-03-21T08:24:01.686Z,393.75
2018-03-21T08:25:01.661Z,393.75
2018-03-21T08:26:01.636Z,393.75
2018-03-21T08:27:01.609Z,393.75
2018-03-21T08:28:01.625Z,399.38
2018-03-21T08:29:01.567Z,399.38
2018-03-21T08:30:01.540Z,405.00
2018-03-21T08:31:01.529Z,410.63
2018-03-21T08:32:01.539Z,421.88
2018-03-21T08:33:01.470Z,433.13
2018-03-21T08:34:01.478Z,444.38
2018-03-21T08:35:01.459Z,461.25
2018-03-21T08:36:01.390Z,506.25
2018-03-21T08:37:01.366Z,680.63
2018-03-21T08:38:01.345Z,641.25
2018-03-21T08:39:01.323Z,601.88
2018-03-21T08:40:01.296Z,590.63
2018-03-21T08:41:01.283Z,573.75
2018-03-21T08:42:01.248Z,579.38
2018-03-21T08:43:01.227Z,573.75
2018-03-21T08:44:01.204Z,573.75
2018-03-21T08:45:01.173Z,568.13
2018-03-21T08:46:01.151Z,573.75
2018-03-21T08:47:01.125Z,551.25
2018-03-21T08:48:01.107Z,551.25
2018-03-21T08:49:01.082Z,551.25
2018-03-21T08:50:01.056Z,540.00
2018-03-21T08:51:01.027Z,545.63
2018-03-21T08:52:01.007Z,551.25
2018-03-21T08:53:00.982Z,551.25
2018-03-21T08:54:00.958Z,573.75
2018-03-21T08:55:00.939Z,585.00
2018-03-21T08:56:00.916Z,596.25
2018-03-21T08:57:00.891Z,613.13
2018-03-21T08:58:00.884Z,624.38
2018-03-21T08:59:00.837Z,624.38
2018-03-21T09:00:00.817Z,618.75
2018-03-21T09:01:00.791Z,613.13
2018-03-21T09:02:00.770Z,596.25
2018-03-21T09:03:00.743Z,585.00
2018-03-21T09:04:00.720Z,573.75
2018-03-21T09:05:00.699Z,556.88
2018-03-21T09:06:00.674Z,528.75
2018-03-21T09:07:00.656Z,517.50
2018-03-21T09:08:00.624Z,506.25
2018-03-21T09:09:00.602Z,495.00
2018-03-21T09:10:00.578Z,478.13
2018-03-21T09:11:00.555Z,478.13
2018-03-21T09:12:00.529Z,478.13
2018-03-21T09:13:00.525Z,466.88
2018-03-21T09:14:00.486Z,461.25
2018-03-21T09:15:00.464Z,455.63
2018-03-21T09:16:00.439Z,450.00
2018-03-21T09:17:00.415Z,450.00
2018-03-21T09:18:00.392Z,444.38
2018-03-21T09:19:00.370Z,444.38
2018-03-21T09:20:00.346Z,438.75
2018-03-21T09:21:00.318Z,438.75
2018-03-21T09:22:00.302Z,433.13
2018-03-21T09:23:00.275Z,433.13
2018-03-21T09:24:00.248Z,433.13
2018-03-21T09:25:00.226Z,427.50
2018-03-21T09:26:00.210Z,421.88
2018-03-21T09:27:00.177Z,421.88
2018-03-21T09:28:00.154Z,421.88
2018-03-21T09:29:00.134Z,421.88
2018-03-21T09:30:00.110Z,416.25
2018-03-21T09:31:00.085Z,410.63
2018-03-21T09:32:00.070Z,410.63
2018-03-21T09:33:00.035Z,405.00
2018-03-21T09:34:00.014Z,399.38
2018-03-21T09:34:59.991Z,393.75
2018-03-21T09:35:59.970Z,393.75
2018-03-21T09:36:59.943Z,393.75
2018-03-21T09:37:59.919Z,376.88
2018-03-21T09:38:59.899Z,382.50
2018-03-21T09:39:59.870Z,365.63
2018-03-21T09:40:59.853Z,354.38
2018-03-21T09:41:59.823Z,371.25
2018-03-21T09:42:59.801Z,365.63
2018-03-21T09:43:59.774Z,365.63
2018-03-21T09:44:59.755Z,360.00
2018-03-21T09:45:59.729Z,360.00
2018-03-21T09:46:59.710Z,354.38
2018-03-21T09:47:59.678Z,354.38
2018-03-21T09:48:59.658Z,348.75
2018-03-21T09:49:59.672Z,343.13
2018-03-21T09:50:59.609Z,343.13
2018-03-21T09:51:59.582Z,337.50
2018-03-21T09:52:59.562Z,337.50
2018-03-21T09:53:59.542Z,331.88
2018-03-21T09:54:59.511Z,337.50
2018-03-21T09:55:59.486Z,326.25
2018-03-21T09:56:59.464Z,326.25
2018-03-21T09:57:59.441Z,320.63
2018-03-21T09:58:59.426Z,303.75
2018-03-21T09:59:59.402Z,315.00
2018-03-21T10:00:59.366Z,315.00
2018-03-21T10:01:59.344Z,320.63
2018-03-21T10:02:59.316Z,315.00
2018-03-21T10:03:59.296Z,320.63
2018-03-21T10:04:59.272Z,303.75
2018-03-21T10:05:59.245Z,303.75
2018-03-21T10:06:59.218Z,303.75
2018-03-21T10:07:59.202Z,298.13
2018-03-21T10:08:59.172Z,298.13
2018-03-21T10:09:59.150Z,292.50
2018-03-21T10:10:59.126Z,292.50
2018-03-21T10:11:59.104Z,298.13
2018-03-21T10:12:59.087Z,292.50
2018-03-21T10:13:59.054Z,286.88
2018-03-21T10:14:59.029Z,275.63
2018-03-21T10:15:59.002Z,270.00
2018-03-21T10:16:58.981Z,275.63
2018-03-21T10:17:58.960Z,275.63
2018-03-21T10:18:58.929Z,275.63
2018-03-21T10:19:58.907Z,275.63
2018-03-21T10:20:58.890Z,275.63
2018-03-21T10:21:58.858Z,281.25
2018-03-21T10:22:58.833Z,275.63
2018-03-21T10:23:58.809Z,275.63
2018-03-21T10:24:58.788Z,275.63
2018-03-21T10:25:58.764Z,281.25
2018-03-21T10:26:58.776Z,247.50
2018-03-21T10:28:13.540Z,247.50
2018-03-21T10:28:58.685Z,258.75
2018-03-21T10:29:58.663Z,275.63
2018-03-21T10:30:58.636Z,270.00
2018-03-21T10:31:58.613Z,270.00
2018-03-21T10:32:58.587Z,258.75
2018-03-21T10:33:58.574Z,275.63
2018-03-21T10:34:58.538Z,264.38
2018-03-21T10:35:58.513Z,258.75
2018-03-21T10:36:58.490Z,253.13
2018-03-21T10:37:58.466Z,264.38
2018-03-21T10:38:58.455Z,258.75
2018-03-21T10:39:58.416Z,236.25
2018-03-21T10:40:58.396Z,241.88
2018-03-21T10:41:58.375Z,241.88
2018-03-21T10:42:58.342Z,247.50
2018-03-21T10:43:58.317Z,247.50
2018-03-21T10:44:58.341Z,253.13
2018-03-21T10:45:58.269Z,258.75
2018-03-21T10:46:58.244Z,270.00
2018-03-21T10:47:58.219Z,264.38
2018-03-21T10:48:58.196Z,270.00
2018-03-21T10:49:58.177Z,270.00
2018-03-21T10:50:58.155Z,270.00
2018-03-21T10:51:58.137Z,270.00
2018-03-21T10:52:58.096Z,270.00
2018-03-21T10:53:58.076Z,258.75
2018-03-21T10:54:58.050Z,264.38
2018-03-21T10:55:58.030Z,258.75
2018-03-21T10:56:58.000Z,253.13
2018-03-21T10:57:57.980Z,258.75
2018-03-21T10:59:12.551Z,275.63
2018-03-21T10:59:57.929Z,264.38
2018-03-21T11:00:57.900Z,264.38
2018-03-21T11:01:57.946Z,270.00
2018-03-21T11:02:57.885Z,241.88
2018-03-21T11:03:57.830Z,241.88
2018-03-21T11:04:57.807Z,247.50
2018-03-21T11:05:57.784Z,236.25
2018-03-21T11:06:57.761Z,241.88
2018-03-21T11:07:57.731Z,247.50
2018-03-21T11:08:57.708Z,241.88
2018-03-21T11:09:57.685Z,241.88
2018-03-21T11:10:57.658Z,241.88
2018-03-21T11:11:57.691Z,241.88
2018-03-21T11:12:57.614Z,247.50
2018-03-21T11:13:57.589Z,241.88
2018-03-21T11:14:57.562Z,253.13
2018-03-21T11:15:57.541Z,258.75
2018-03-21T11:16:57.515Z,258.75
2018-03-21T11:17:57.489Z,264.38
2018-03-21T11:18:57.465Z,264.38
2018-03-21T11:19:57.445Z,264.38
2018-03-21T11:20:57.416Z,258.75
2018-03-21T11:21:57.391Z,275.63
2018-03-21T11:22:57.366Z,270.00
2018-03-21T11:23:57.345Z,270.00
2018-03-21T11:24:57.320Z,275.63
2018-03-21T11:25:57.298Z,275.63
2018-03-21T11:26:57.268Z,275.63
2018-03-21T11:27:57.247Z,275.63
2018-03-21T11:28:57.226Z,264.38
2018-03-21T11:29:57.197Z,253.13
2018-03-21T11:30:57.173Z,253.13
2018-03-21T11:31:57.153Z,258.75
2018-03-21T11:32:57.128Z,264.38
2018-03-21T11:33:57.101Z,270.00
2018-03-21T11:34:57.086Z,258.75
2018-03-21T11:35:57.051Z,258.75
2018-03-21T11:36:57.041Z,247.50
2018-03-21T11:37:57.061Z,241.88
2018-03-21T11:38:56.984Z,270.00
2018-03-21T11:39:56.998Z,270.00
2018-03-21T11:40:56.968Z,275.63
2018-03-21T11:41:56.921Z,275.63
2018-03-21T11:42:56.882Z,270.00
2018-03-21T11:43:56.865Z,270.00
2018-03-21T11:44:56.841Z,264.38
2018-03-21T11:45:56.815Z,264.38
2018-03-21T11:46:56.788Z,270.00
2018-03-21T11:47:56.765Z,264.38
2018-03-21T11:48:56.738Z,253.13
2018-03-21T11:49:56.717Z,247.50
2018-03-21T11:50:56.724Z,253.13
2018-03-21T11:51:56.667Z,258.75
2018-03-21T11:52:56.644Z,258.75
2018-03-21T11:53:56.621Z,258.75
2018-03-21T11:54:56.596Z,264.38
2018-03-21T11:55:56.583Z,264.38
2018-03-21T11:56:56.550Z,264.38
2018-03-21T11:57:56.527Z,264.38
2018-03-21T11:58:56.502Z,270.00
2018-03-21T11:59:56.477Z,258.75
2018-03-21T12:00:56.455Z,247.50
2018-03-21T12:01:56.429Z,258.75
2018-03-21T12:02:56.412Z,264.38
2018-03-21T12:03:56.381Z,264.38
2018-03-21T12:04:56.362Z,264.38
2018-03-21T12:05:56.333Z,264.38
2018-03-21T12:06:56.313Z,264.38
2018-03-21T12:07:56.285Z,258.75
2018-03-21T12:08:56.282Z,264.38
2018-03-21T12:09:56.241Z,264.38
2018-03-21T12:10:56.218Z,264.38
2018-03-21T12:11:56.193Z,264.38
2018-03-21T12:12:56.176Z,264.38
2018-03-21T12:13:56.143Z,258.75
2018-03-21T12:14:56.127Z,258.75
2018-03-21T12:15:56.102Z,258.75
2018-03-21T12:16:56.123Z,258.75
2018-03-21T12:17:56.049Z,258.75
2018-03-21T12:18:56.028Z,247.50
2018-03-21T12:19:56.011Z,253.13
2018-03-21T12:20:55.980Z,253.13
2018-03-21T12:21:55.955Z,247.50
2018-03-21T12:22:55.933Z,247.50
2018-03-21T12:23:55.907Z,241.88
2018-03-21T12:24:55.893Z,225.00
2018-03-21T12:25:55.863Z,213.75
2018-03-21T12:26:55.837Z,208.13
2018-03-21T12:27:55.831Z,185.63
2018-03-21T12:28:55.794Z,185.63
2018-03-21T12:29:55.769Z,185.63
2018-03-21T12:30:55.744Z,185.63
2018-03-21T12:31:55.721Z,174.38
2018-03-21T12:32:55.700Z,168.75
2018-03-21T12:33:55.673Z,163.13
2018-03-21T12:34:55.648Z,168.75
2018-03-21T12:35:55.631Z,185.63
2018-03-21T12:36:55.604Z,202.50
2018-03-21T12:37:55.577Z,208.13
2018-03-21T12:38:55.560Z,208.13
2018-03-21T12:39:55.533Z,202.50
2018-03-21T12:40:55.516Z,191.25
2018-03-21T12:41:55.491Z,185.63
2018-03-21T12:42:55.460Z,191.25
2018-03-21T12:43:55.439Z,174.38
2018-03-21T12:44:55.413Z,163.13
2018-03-21T12:45:55.393Z,151.88
2018-03-21T12:46:55.365Z,163.13
2018-03-21T12:47:55.344Z,163.13
2018-03-21T12:48:55.322Z,163.13
2018-03-21T12:49:55.331Z,168.75
2018-03-21T12:50:55.272Z,180.00
2018-03-21T12:51:55.247Z,180.00
2018-03-21T12:52:55.223Z,174.38
2018-03-21T12:53:55.202Z,168.75
2018-03-21T12:54:55.220Z,168.75
2018-03-21T12:55:55.257Z,163.13
2018-03-21T12:56:55.130Z,163.13
2018-03-21T12:57:55.108Z,157.50
2018-03-21T12:58:55.082Z,146.25
2018-03-21T12:59:55.059Z,146.25
2018-03-21T13:00:55.043Z,140.63
2018-03-21T13:01:55.015Z,140.63
2018-03-21T13:02:54.990Z,140.63
2018-03-21T13:03:54.969Z,140.63
2018-03-21T13:04:54.962Z,146.25
2018-03-21T13:05:54.921Z,146.25
2018-03-21T13:06:54.905Z,140.63
2018-03-21T13:07:54.869Z,140.63
2018-03-21T13:08:54.864Z,146.25
2018-03-21T13:09:54.829Z,146.25
2018-03-21T13:10:54.802Z,151.88
2018-03-21T13:11:54.778Z,146.25
2018-03-21T13:12:54.750Z,135.00
2018-03-21T13:13:54.729Z,146.25
2018-03-21T13:14:54.706Z,140.63
2018-03-21T13:15:54.679Z,135.00
2018-03-21T13:16:54.673Z,135.00
2018-03-21T13:17:54.633Z,135.00
2018-03-21T13:18:54.610Z,129.38
2018-03-21T13:19:54.591Z,123.75
2018-03-21T13:20:54.575Z,129.38
2018-03-21T13:21:54.543Z,123.75
2018-03-21T13:22:54.516Z,123.75
2018-03-21T13:23:54.493Z,123.75
2018-03-21T13:24:54.469Z,123.75
2018-03-21T13:25:54.447Z,112.50
2018-03-21T13:26:54.442Z,112.50
2018-03-21T13:27:54.399Z,112.50
2018-03-21T13:28:54.386Z,106.88
2018-03-21T13:29:54.351Z,106.88
2018-03-21T13:30:54.326Z,101.25
2018-03-21T13:31:54.341Z,95.63
2018-03-21T13:32:54.282Z,95.63
2018-03-21T13:33:54.255Z,90.00
2018-03-21T13:34:54.242Z,90.00
2018-03-21T13:35:54.211Z,90.00
2018-03-21T13:36:54.188Z,84.38
2018-03-21T13:37:54.165Z,84.38
2018-03-21T13:38:54.143Z,78.75
2018-03-21T13:39:54.129Z,78.75
2018-03-21T13:40:54.090Z,78.75
2018-03-21T13:41:54.069Z,73.13
2018-03-21T13:42:54.040Z,73.13
2018-03-21T13:43:54.016Z,73.13
2018-03-21T13:44:53.996Z,73.13
2018-03-21T13:45:53.975Z,73.13
2018-03-21T13:46:53.945Z,73.13
2018-03-21T13:47:53.923Z,73.13
2018-03-21T13:48:53.898Z,73.13
2018-03-21T13:49:53.879Z,73.13
2018-03-21T13:50:53.851Z,73.13
2018-03-21T13:51:53.870Z,73.13
2018-03-21T13:52:53.804Z,73.13
2018-03-21T13:53:53.809Z,73.13
2018-03-21T13:54:53.760Z,73.13
2018-03-21T13:55:53.735Z,67.50
2018-03-21T13:56:53.708Z,67.50
2018-03-21T13:57:53.690Z,67.50
2018-03-21T13:58:53.662Z,67.50
2018-03-21T13:59:53.639Z,67.50
2018-03-21T14:00:53.618Z,67.50
2018-03-21T14:01:53.588Z,67.50
2018-03-21T14:02:53.570Z,67.50
2018-03-21T14:03:53.541Z,67.50
2018-03-21T14:04:53.529Z,67.50
2018-03-21T14:05:53.497Z,61.88
2018-03-21T14:06:53.472Z,67.50
2018-03-21T14:07:53.447Z,67.50
2018-03-21T14:08:53.422Z,67.50
2018-03-21T14:09:53.457Z,67.50
2018-03-21T14:10:53.380Z,67.50
2018-03-21T14:11:53.350Z,67.50
2018-03-21T14:12:53.327Z,67.50
2018-03-21T14:13:53.303Z,67.50
2018-03-21T14:14:53.286Z,67.50
2018-03-21T14:15:53.255Z,67.50
2018-03-21T14:16:53.229Z,67.50
2018-03-21T14:17:53.209Z,67.50
2018-03-21T14:18:53.181Z,67.50
2018-03-21T14:19:53.161Z,67.50
2018-03-21T14:20:53.138Z,67.50
2018-03-21T14:21:53.113Z,67.50
2018-03-21T14:22:53.092Z,61.88
2018-03-21T14:23:53.062Z,67.50
2018-03-21T14:24:53.040Z,67.50
2018-03-21T14:25:53.013Z,67.50
2018-03-21T14:26:52.990Z,67.50
2018-03-21T14:27:52.967Z,67.50
2018-03-21T14:28:52.942Z,67.50
2018-03-21T14:29:52.917Z,67.50
2018-03-21T14:30:52.899Z,67.50
2018-03-21T14:31:52.871Z,67.50
2018-03-21T14:32:52.848Z,67.50
2018-03-21T14:33:52.855Z,61.88
2018-03-21T14:34:52.798Z,61.88
2018-03-21T14:35:52.778Z,61.88
2018-03-21T14:36:52.755Z,61.88
2018-03-21T14:37:52.735Z,61.88
2018-03-21T14:38:52.706Z,56.25
2018-03-21T14:39:52.679Z,61.88